Time;durP1;ratioP1;P1;durP2;ratioP2;P2;SDS_P1;SDS_P2;PMS_P1;PMS_P2;Temp;Humidity;BMP_temperature;BMP_pressure;BME280_temperature;BME280_humidity;BME280_pressure;Samples;Min_cycle;Max_cycle;Signal;HPM_P1;HPM_P2
2021/11/10 00:00:50;;;;;;;1.50;0.90;;;5.70;99.90;;;;;;5093669;28;20238;-67
2021/11/10 00:03:19;;;;;;;0.90;0.68;;;5.70;99.90;;;;;;5093121;28;20703;-66
2021/11/10 00:05:47;;;;;;;1.00;0.80;;;5.70;99.90;;;;;;5093478;28;20262;-67
2021/11/10 00:08:15;;;;;;;0.90;0.50;;;5.70;99.90;;;;;;5093967;28;20176;-66
2021/11/10 00:10:43;;;;;;;1.98;1.88;;;5.70;99.90;;;;;;5094056;28;20679;-66
2021/11/10 00:13:20;;;;;;;2.33;1.48;;;5.60;99.90;;;;;;5093980;28;20215;-66
2021/11/10 00:15:51;;;;;;;1.20;0.90;;;5.50;99.90;;;;;;5093531;28;20195;-67
2021/11/10 00:18:20;;;;;;;1.90;1.52;;;5.60;99.90;;;;;;5094739;28;20192;-67
2021/11/10 00:20:49;;;;;;;0.80;0.50;;;5.60;99.90;;;;;;5094652;28;20188;-67
2021/11/10 00:23:17;;;;;;;2.90;1.80;;;5.60;99.90;;;;;;5093589;28;20576;-67
2021/11/10 00:25:46;;;;;;;0.80;0.50;;;5.50;99.90;;;;;;5092865;28;20554;-66
2021/11/10 00:28:14;;;;;;;0.80;0.50;;;5.50;99.90;;;;;;5092963;28;20536;-65
2021/11/10 00:30:42;;;;;;;0.80;0.60;;;5.40;99.90;;;;;;5092887;28;20616;-66
2021/11/10 00:33:12;;;;;;;0.93;0.65;;;5.50;99.90;;;;;;5093051;28;20261;-67
2021/11/10 00:35:41;;;;;;;9.10;1.98;;;5.50;99.90;;;;;;5092966;28;20176;-67
2021/11/10 00:38:10;;;;;;;2.85;1.83;;;5.40;99.90;;;;;;5092909;28;20188;-67
2021/11/10 00:40:38;;;;;;;1.00;0.80;;;5.40;99.90;;;;;;5092804;28;20266;-67
2021/11/10 00:43:07;;;;;;;1.85;1.05;;;5.30;99.90;;;;;;5092337;28;20264;-67
2021/11/10 00:45:35;;;;;;;1.70;1.35;;;5.30;99.90;;;;;;5092495;28;20175;-67
2021/11/10 00:48:05;;;;;;;1.75;1.38;;;5.40;99.90;;;;;;5092610;28;20186;-67
2021/11/10 00:50:35;;;;;;;2.03;0.85;;;5.30;99.90;;;;;;5092437;28;20594;-66
2021/11/10 00:53:05;;;;;;;1.55;1.40;;;5.30;99.90;;;;;;5092436;28;20900;-67
2021/11/10 00:55:34;;;;;;;0.85;0.63;;;5.20;99.90;;;;;;5074131;28;20199;-67
2021/11/10 00:58:03;;;;;;;0.80;0.60;;;5.20;99.90;;;;;;5092542;28;20179;-66
2021/11/10 01:00:31;;;;;;;1.20;0.65;;;5.20;99.90;;;;;;5092676;28;20195;-67
2021/11/10 01:03:00;;;;;;;1.38;0.95;;;5.20;99.90;;;;;;5074063;28;20219;-67
2021/11/10 01:05:28;;;;;;;3.15;1.25;;;5.20;99.90;;;;;;5092192;28;20182;-67
2021/11/10 01:07:58;;;;;;;1.27;0.80;;;5.10;99.90;;;;;;5092544;28;20692;-67
2021/11/10 01:10:26;;;;;;;0.80;0.57;;;5.20;99.90;;;;;;5091948;28;20187;-65
2021/11/10 01:12:55;;;;;;;0.90;0.70;;;5.20;99.90;;;;;;5094130;22;20677;-75
2021/11/10 01:15:24;;;;;;;1.38;1.23;;;5.20;99.90;;;;;;5071308;28;20309;-75
2021/11/10 01:17:53;;;;;;;0.80;0.50;;;5.10;99.90;;;;;;5088716;28;20191;-75
2021/11/10 01:20:23;;;;;;;4.22;1.02;;;5.10;99.90;;;;;;5088589;28;20616;-75
2021/11/10 01:22:51;;;;;;;0.90;0.63;;;5.10;99.90;;;;;;5088629;28;20228;-75
2021/11/10 01:25:21;;;;;;;0.90;0.60;;;5.10;99.90;;;;;;5074673;28;20173;-75
2021/11/10 01:27:50;;;;;;;1.05;0.70;;;5.10;99.90;;;;;;5074164;28;20196;-76
2021/11/10 01:30:19;;;;;;;1.10;0.93;;;5.00;99.90;;;;;;5075491;28;20183;-75
2021/11/10 01:32:48;;;;;;;3.10;1.10;;;5.00;99.90;;;;;;5073812;28;20257;-76
2021/11/10 01:35:17;;;;;;;1.00;0.70;;;5.00;99.90;;;;;;5072629;28;20242;-76
2021/11/10 01:37:45;;;;;;;1.45;1.23;;;5.00;99.90;;;;;;5071826;28;20181;-75
2021/11/10 01:40:16;;;;;;;1.55;0.60;;;5.00;99.90;;;;;;5071739;28;20211;-77
2021/11/10 01:42:49;;;;;;;2.45;0.75;;;4.90;99.90;;;;;;5072004;28;20232;-75
2021/11/10 01:45:22;;;;;;;0.80;0.60;;;4.90;99.90;;;;;;5088860;28;20192;-76
2021/11/10 01:47:54;;;;;;;0.85;0.60;;;4.90;99.90;;;;;;5089711;28;20192;-75
2021/11/10 01:50:22;;;;;;;0.88;0.65;;;4.90;99.90;;;;;;5088928;28;20573;-75
2021/11/10 01:52:50;;;;;;;1.13;1.02;;;4.90;99.90;;;;;;5073055;28;20748;-75
2021/11/10 01:55:18;;;;;;;0.90;0.70;;;4.90;99.90;;;;;;5088016;28;20198;-75
2021/11/10 01:57:50;;;;;;;1.27;0.90;;;4.80;99.90;;;;;;5072780;28;20187;-75
2021/11/10 02:00:24;;;;;;;1.13;1.00;;;4.80;99.90;;;;;;5088683;28;20197;-74
2021/11/10 02:03:01;;;;;;;3.85;2.22;;;4.80;99.90;;;;;;5072221;28;20226;-75
2021/11/10 02:05:50;;;;;;;1.30;1.20;;;4.80;99.90;;;;;;5065988;28;20227;-75
2021/11/10 02:08:34;;;;;;;0.80;0.50;;;4.80;99.90;;;;;;5073945;28;20190;-76
2021/11/10 02:11:10;;;;;;;1.20;1.05;;;4.80;99.90;;;;;;5089742;28;20192;-75
2021/11/10 02:13:45;;;;;;;1.95;1.45;;;4.80;99.90;;;;;;5071092;28;20289;-76
2021/11/10 02:16:13;;;;;;;2.03;1.35;;;4.80;99.90;;;;;;5087901;28;20196;-76
2021/11/10 02:18:41;;;;;;;0.90;0.80;;;4.70;99.90;;;;;;5072075;28;20203;-76
2021/11/10 02:21:15;;;;;;;0.90;0.60;;;4.70;99.90;;;;;;5087676;28;20215;-76
2021/11/10 02:23:44;;;;;;;0.90;0.80;;;4.70;99.90;;;;;;5087476;28;20779;-75
2021/11/10 02:26:13;;;;;;;1.23;1.13;;;4.70;99.90;;;;;;5073393;28;20239;-76
2021/11/10 02:28:41;;;;;;;1.38;1.27;;;4.70;99.90;;;;;;5091803;28;20359;-74
2021/11/10 02:31:10;;;;;;;1.00;0.85;;;4.70;99.90;;;;;;5091653;28;20184;-74
2021/11/10 02:33:39;;;;;;;1.10;0.95;;;4.70;99.90;;;;;;5092267;28;20578;-75
2021/11/10 02:36:08;;;;;;;1.08;0.98;;;4.70;99.90;;;;;;5091728;28;20595;-75
2021/11/10 02:38:38;;;;;;;0.98;0.88;;;4.70;99.90;;;;;;5091635;28;20271;-76
2021/11/10 02:41:07;;;;;;;2.25;1.05;;;4.80;99.90;;;;;;5091456;28;20196;-76
2021/11/10 02:43:35;;;;;;;1.73;1.10;;;4.70;99.90;;;;;;5075887;28;20227;-75
2021/11/10 02:46:03;;;;;;;1.10;1.00;;;4.70;99.90;;;;;;5076135;28;20184;-75
2021/11/10 02:48:32;;;;;;;1.30;1.17;;;4.60;99.90;;;;;;5091664;28;20192;-75
2021/11/10 02:51:00;;;;;;;1.25;1.15;;;4.60;99.90;;;;;;5076015;28;20192;-75
2021/11/10 02:53:33;;;;;;;2.75;1.35;;;4.70;99.90;;;;;;5075783;28;20234;-75
2021/11/10 02:56:03;;;;;;;1.05;0.75;;;4.70;99.90;;;;;;5075794;28;20176;-74
2021/11/10 02:58:32;;;;;;;0.80;0.60;;;4.70;99.90;;;;;;5075634;28;20187;-76
2021/11/10 03:01:03;;;;;;;1.20;1.10;;;4.60;99.90;;;;;;5074541;28;20324;-75
2021/11/10 03:03:33;;;;;;;1.35;0.85;;;4.70;99.90;;;;;;5091247;28;20536;-75
2021/11/10 03:06:01;;;;;;;2.25;1.15;;;4.60;99.90;;;;;;5074401;28;20192;-75
2021/11/10 03:08:32;;;;;;;0.80;0.60;;;4.60;99.90;;;;;;5091279;28;20192;-75
2021/11/10 03:11:10;;;;;;;3.75;0.90;;;4.50;99.90;;;;;;5074199;28;20192;-75
2021/11/10 03:13:39;;;;;;;0.88;0.68;;;4.50;99.90;;;;;;5090859;28;20307;-75
2021/11/10 03:16:09;;;;;;;1.15;0.68;;;4.50;99.90;;;;;;5090980;28;20180;-75
2021/11/10 03:18:38;;;;;;;1.80;1.70;;;4.50;99.90;;;;;;5075239;28;20188;-75
2021/11/10 03:21:07;;;;;;;0.90;0.70;;;4.50;99.90;;;;;;5073709;28;20662;-75
2021/11/10 03:23:35;;;;;;;1.90;1.70;;;4.50;99.90;;;;;;5074826;28;20219;-75
2021/11/10 03:26:06;;;;;;;1.33;0.80;;;4.50;99.90;;;;;;5090895;28;20192;-75
2021/11/10 03:28:36;;;;;;;8.10;1.00;;;4.50;99.90;;;;;;5090848;28;20192;-75
2021/11/10 03:31:06;;;;;;;1.10;0.77;;;4.50;99.90;;;;;;5090504;28;20215;-75
2021/11/10 03:33:36;;;;;;;1.45;0.95;;;4.40;99.90;;;;;;5090568;28;20204;-75
2021/11/10 03:36:04;;;;;;;0.80;0.50;;;4.40;99.90;;;;;;5090081;28;20223;-75
2021/11/10 03:38:34;;;;;;;1.00;0.80;;;4.30;99.90;;;;;;5090147;28;20294;-74
2021/11/10 03:41:02;;;;;;;0.80;0.50;;;4.30;99.90;;;;;;5091141;28;20258;-74
2021/11/10 03:43:36;;;;;;;2.10;1.05;;;4.20;99.90;;;;;;5090971;28;20717;-75
2021/11/10 03:46:05;;;;;;;5.85;1.50;;;4.10;99.90;;;;;;5074379;28;20551;-74
2021/11/10 03:48:36;;;;;;;1.38;1.05;;;4.10;99.90;;;;;;5091486;28;20199;-75
2021/11/10 03:51:04;;;;;;;0.80;0.50;;;4.20;99.90;;;;;;5092133;28;20646;-75
2021/11/10 03:53:35;;;;;;;0.80;0.57;;;4.30;99.90;;;;;;5099136;28;20210;-75
2021/11/10 03:56:03;;;;;;;1.00;0.60;;;4.30;99.90;;;;;;5104445;28;20196;-75
2021/11/10 03:58:33;;;;;;;3.45;1.85;;;4.20;99.90;;;;;;5096097;28;20221;-75
2021/11/10 04:01:03;;;;;;;2.95;0.88;;;4.10;99.90;;;;;;5096918;28;20188;-75
2021/11/10 04:03:33;;;;;;;0.90;0.80;;;4.10;99.90;;;;;;5094645;28;20291;-75
2021/11/10 04:06:03;;;;;;;0.90;0.65;;;4.00;99.90;;;;;;5096090;28;20234;-75
2021/11/10 04:08:33;;;;;;;1.35;1.25;;;4.10;99.90;;;;;;5115290;28;20176;-76
2021/11/10 04:11:01;;;;;;;1.80;1.55;;;4.20;99.90;;;;;;5114369;28;20195;-76
2021/11/10 04:13:30;;;;;;;1.45;1.35;;;4.10;99.90;;;;;;5109136;28;20315;-75
2021/11/10 04:15:58;;;;;;;1.40;1.02;;;4.10;99.90;;;;;;5073534;28;20215;-75
2021/11/10 04:18:32;;;;;;;0.80;0.60;;;4.10;99.90;;;;;;5093739;28;20199;-75
2021/11/10 04:21:07;;;;;;;1.00;0.90;;;4.10;99.90;;;;;;5094199;28;20210;-76
2021/11/10 04:23:36;;;;;;;0.80;0.60;;;4.10;99.90;;;;;;5093679;28;20410;-75
2021/11/10 04:26:05;;;;;;;1.63;0.90;;;4.00;99.90;;;;;;5093669;28;20220;-75
2021/11/10 04:28:34;;;;;;;0.90;0.70;;;4.10;99.90;;;;;;5075838;28;20245;-75
2021/11/10 04:31:03;;;;;;;1.05;0.95;;;4.10;99.90;;;;;;5075081;28;20249;-75
2021/11/10 04:33:34;;;;;;;0.80;0.50;;;4.10;99.90;;;;;;5091133;28;20212;-75
2021/11/10 04:36:05;;;;;;;1.50;1.08;;;4.10;99.90;;;;;;5074784;28;20196;-75
2021/11/10 04:38:35;;;;;;;0.95;0.57;;;4.10;99.90;;;;;;5093415;28;20259;-74
2021/11/10 04:41:04;;;;;;;1.88;0.95;;;4.00;99.90;;;;;;5093880;28;20200;-75
2021/11/10 04:43:32;;;;;;;0.90;0.70;;;3.90;99.90;;;;;;5092993;28;20212;-75
2021/11/10 04:46:07;;;;;;;1.20;1.02;;;3.80;99.90;;;;;;5095803;28;20192;-74
2021/11/10 04:48:37;;;;;;;0.80;0.60;;;3.90;99.90;;;;;;5080603;28;20335;-74
2021/11/10 04:51:06;;;;;;;0.85;0.60;;;4.00;99.90;;;;;;5093772;28;20199;-75
2021/11/10 04:53:35;;;;;;;1.40;1.00;;;4.00;99.90;;;;;;5074194;28;20215;-75
2021/11/10 04:56:04;;;;;;;1.05;0.68;;;4.00;99.90;;;;;;5072198;28;20258;-75
2021/11/10 04:58:34;;;;;;;0.80;0.60;;;4.00;99.90;;;;;;5072476;28;20271;-75
2021/11/10 05:01:03;;;;;;;6.10;1.50;;;3.90;99.90;;;;;;5071972;28;20196;-74
2021/11/10 05:03:31;;;;;;;1.60;0.88;;;3.90;99.90;;;;;;5093354;28;20682;-75
2021/11/10 05:06:01;;;;;;;0.90;0.75;;;3.90;99.90;;;;;;5089239;28;20607;-76
2021/11/10 05:08:30;;;;;;;1.27;0.93;;;3.90;99.90;;;;;;5072069;28;20188;-76
2021/11/10 05:10:58;;;;;;;1.80;1.15;;;3.90;99.90;;;;;;5073232;28;20173;-75
2021/11/10 05:13:27;;;;;;;0.80;0.68;;;3.90;99.90;;;;;;5088663;28;20215;-75
2021/11/10 05:15:55;;;;;;;1.13;1.02;;;3.90;99.90;;;;;;5071898;28;20200;-75
2021/11/10 05:18:24;;;;;;;2.00;1.17;;;3.90;99.90;;;;;;5072043;28;20535;-76
2021/11/10 05:20:54;;;;;;;1.08;0.98;;;3.90;99.90;;;;;;5088758;28;20192;-75
2021/11/10 05:23:25;;;;;;;1.38;0.90;;;3.90;99.90;;;;;;5088791;28;20216;-75
2021/11/10 05:25:53;;;;;;;2.38;1.50;;;3.90;99.90;;;;;;5073890;28;20199;-75
2021/11/10 05:28:21;;;;;;;3.45;0.93;;;3.80;99.90;;;;;;5074991;28;20184;-75
2021/11/10 05:30:49;;;;;;;1.00;0.70;;;3.80;99.90;;;;;;5089678;28;20265;-74
2021/11/10 05:33:18;;;;;;;2.10;1.98;;;3.70;99.90;;;;;;5073442;28;20641;-75
2021/11/10 05:35:47;;;;;;;1.48;0.88;;;3.80;99.90;;;;;;5073325;28;20528;-76
2021/11/10 05:38:15;;;;;;;0.93;0.82;;;3.80;99.90;;;;;;5073391;28;20604;-75
2021/11/10 05:40:44;;;;;;;2.75;1.00;;;3.80;99.90;;;;;;5072941;28;20188;-75
2021/11/10 05:43:12;;;;;;;0.95;0.60;;;3.80;99.90;;;;;;5072890;28;20223;-75
2021/11/10 05:45:40;;;;;;;0.80;0.60;;;3.90;99.90;;;;;;5072937;28;20685;-74
2021/11/10 05:48:09;;;;;;;0.95;0.85;;;3.90;99.90;;;;;;5072861;28;20184;-74
2021/11/10 05:50:37;;;;;;;1.85;1.75;;;3.80;99.90;;;;;;5072814;28;20232;-75
2021/11/10 05:53:06;;;;;;;2.45;1.50;;;3.70;99.90;;;;;;5088257;28;20231;-75
2021/11/10 05:55:35;;;;;;;0.80;0.60;;;3.70;99.90;;;;;;5072901;28;20168;-76
2021/11/10 05:58:09;;;;;;;0.80;0.55;;;3.70;99.90;;;;;;5072779;28;20666;-74
2021/11/10 06:00:38;;;;;;;0.95;0.80;;;3.80;99.90;;;;;;5072118;28;20181;-74
2021/11/10 06:03:06;;;;;;;1.35;1.25;;;3.70;99.90;;;;;;5088195;28;20294;-74
2021/11/10 06:05:35;;;;;;;0.80;0.50;;;3.70;99.90;;;;;;5061958;28;20223;-76
2021/11/10 06:08:04;;;;;;;3.03;2.83;;;3.80;99.90;;;;;;5072791;28;20509;-75
2021/11/10 06:10:32;;;;;;;1.35;1.25;;;3.80;99.90;;;;;;5063835;28;20227;-75
2021/11/10 06:13:00;;;;;;;0.80;0.50;;;3.80;99.90;;;;;;5070414;28;20227;-74
2021/11/10 06:15:30;;;;;;;0.80;0.50;;;3.90;99.90;;;;;;5064852;28;20188;-76
2021/11/10 06:17:59;;;;;;;0.90;0.68;;;3.90;99.90;;;;;;5074606;28;20192;-75
2021/11/10 06:20:27;;;;;;;0.80;0.50;;;4.00;99.90;;;;;;5075647;28;20643;-75
2021/11/10 06:22:55;;;;;;;1.25;0.98;;;3.90;99.90;;;;;;5076370;28;20238;-76
2021/11/10 06:25:23;;;;;;;1.65;0.85;;;3.90;99.90;;;;;;5074111;28;20591;-76
2021/11/10 06:27:51;;;;;;;1.42;1.25;;;3.90;99.90;;;;;;5074297;28;20191;-76
2021/11/10 06:30:20;;;;;;;1.90;1.80;;;4.00;99.90;;;;;;5073638;28;20173;-76
2021/11/10 06:32:49;;;;;;;1.15;0.77;;;4.00;99.90;;;;;;5055862;28;20239;-75
2021/11/10 06:35:18;;;;;;;1.52;1.42;;;4.00;99.90;;;;;;5057671;28;20392;-77
2021/11/10 06:37:46;;;;;;;0.90;0.80;;;4.10;99.90;;;;;;5069911;28;20184;-77
2021/11/10 06:40:15;;;;;;;0.80;0.60;;;4.10;99.90;;;;;;5072646;28;20191;-77
2021/11/10 06:42:43;;;;;;;1.30;0.80;;;4.10;99.90;;;;;;5072754;28;20211;-77
2021/11/10 06:45:12;;;;;;;1.20;1.10;;;4.10;99.90;;;;;;5070829;28;20222;-78
2021/11/10 06:47:41;;;;;;;1.42;1.33;;;4.20;99.90;;;;;;5071064;28;20197;-77
2021/11/10 06:50:12;;;;;;;1.48;1.33;;;4.10;99.90;;;;;;5071717;28;20234;-77
2021/11/10 06:52:40;;;;;;;0.90;0.68;;;4.20;99.90;;;;;;5072977;28;20669;-77
2021/11/10 06:55:09;;;;;;;0.90;0.73;;;4.20;99.90;;;;;;5072627;28;20180;-78
2021/11/10 06:57:37;;;;;;;1.10;0.90;;;4.20;99.90;;;;;;5072837;28;20219;-77
2021/11/10 07:00:08;;;;;;;1.40;1.30;;;4.20;99.90;;;;;;5072826;28;20168;-77
2021/11/10 07:02:36;;;;;;;1.67;0.90;;;4.30;99.90;;;;;;5072999;28;20191;-78
2021/11/10 07:05:05;;;;;;;0.90;0.65;;;4.40;99.90;;;;;;5073059;28;20200;-78
2021/11/10 07:07:35;;;;;;;0.80;0.50;;;4.40;99.90;;;;;;5073198;28;20184;-77
2021/11/10 07:10:06;;;;;;;0.90;0.75;;;4.40;99.90;;;;;;5072466;28;20593;-78
2021/11/10 07:12:34;;;;;;;1.33;1.15;;;4.40;99.90;;;;;;5074592;28;20184;-77
2021/11/10 07:15:02;;;;;;;1.45;1.10;;;4.50;99.90;;;;;;5063311;22;20241;-75
2021/11/10 07:17:31;;;;;;;2.13;1.13;;;4.50;99.90;;;;;;5036229;28;20240;-74
2021/11/10 07:19:59;;;;;;;1.45;0.70;;;4.60;99.90;;;;;;5036262;28;20185;-74
2021/11/10 07:22:27;;;;;;;2.55;2.20;;;4.60;99.90;;;;;;5035768;28;20185;-75
2021/11/10 07:24:57;;;;;;;1.02;0.93;;;4.80;99.90;;;;;;5041745;28;20260;-74
2021/11/10 07:27:29;;;;;;;6.07;1.63;;;4.90;99.90;;;;;;5035477;28;20165;-74
2021/11/10 07:29:57;;;;;;;2.10;1.15;;;4.90;99.90;;;;;;5035816;28;20177;-75
2021/11/10 07:32:25;;;;;;;1.88;1.60;;;5.00;99.90;;;;;;5035794;28;20182;-74
2021/11/10 07:34:53;;;;;;;2.20;1.35;;;5.10;99.90;;;;;;5035815;28;20209;-75
2021/11/10 07:37:22;;;;;;;1.65;1.17;;;5.20;99.90;;;;;;5041517;28;20166;-74
2021/11/10 07:39:50;;;;;;;1.90;1.30;;;5.20;99.90;;;;;;5035831;28;20655;-75
2021/11/10 07:42:20;;;;;;;3.42;2.45;;;5.30;99.90;;;;;;5035326;28;20662;-74
2021/11/10 07:44:52;;;;;;;1.20;1.10;;;5.30;99.90;;;;;;5035076;28;20207;-74
2021/11/10 07:47:22;;;;;;;1.38;1.05;;;5.40;99.90;;;;;;5035733;28;20516;-74
2021/11/10 07:49:52;;;;;;;3.75;1.85;;;5.60;99.90;;;;;;5034661;28;20209;-74
2021/11/10 07:52:20;;;;;;;1.17;0.82;;;5.70;99.90;;;;;;5034800;28;20177;-74
2021/11/10 07:54:53;;;;;;;1.48;1.13;;;5.80;99.90;;;;;;5034834;28;20248;-74
2021/11/10 07:57:22;;;;;;;2.20;1.40;;;5.80;99.90;;;;;;5034805;28;20261;-74
2021/11/10 07:59:51;;;;;;;1.45;1.17;;;5.90;99.90;;;;;;5034663;28;20235;-74
2021/11/10 08:02:20;;;;;;;1.15;1.05;;;5.90;99.90;;;;;;5034606;28;20208;-74
2021/11/10 08:04:48;;;;;;;1.08;0.85;;;5.90;99.90;;;;;;5034716;28;20202;-74
2021/11/10 08:07:16;;;;;;;1.23;1.08;;;5.90;99.90;;;;;;5034943;28;20213;-74
2021/11/10 08:09:45;;;;;;;1.55;1.02;;;5.80;99.90;;;;;;5034663;28;20272;-74
2021/11/10 08:12:13;;;;;;;1.13;0.77;;;5.80;99.90;;;;;;5034711;28;20178;-74
2021/11/10 08:14:42;;;;;;;1.35;1.25;;;5.80;99.90;;;;;;5034540;28;20215;-74
2021/11/10 08:17:10;;;;;;;1.90;1.13;;;5.70;99.90;;;;;;5034443;28;20216;-74
2021/11/10 08:19:39;;;;;;;2.42;1.90;;;5.90;99.90;;;;;;5034670;28;20181;-74
2021/11/10 08:22:07;;;;;;;2.67;2.17;;;6.00;99.90;;;;;;5034575;28;20174;-74
2021/11/10 08:24:35;;;;;;;1.48;0.88;;;6.10;99.90;;;;;;5033666;28;20582;-73
2021/11/10 08:27:04;;;;;;;2.38;1.77;;;6.30;99.90;;;;;;5034203;28;20726;-73
2021/11/10 08:29:33;;;;;;;1.55;1.13;;;6.40;99.90;;;;;;5034041;28;20248;-73
2021/11/10 08:32:03;;;;;;;1.73;1.20;;;6.60;99.90;;;;;;5034097;28;20185;-74
2021/11/10 08:34:46;;;;;;;2.28;1.60;;;6.70;99.90;;;;;;5016645;28;20301;-75
2021/11/10 08:37:14;;;;;;;2.15;0.73;;;6.80;99.90;;;;;;5034358;28;20684;-75
2021/11/10 08:39:43;;;;;;;3.72;1.98;;;6.70;99.90;;;;;;5033988;28;20197;-75
2021/11/10 08:42:12;;;;;;;2.13;0.90;;;6.80;99.90;;;;;;5034210;28;20196;-75
2021/11/10 08:44:45;;;;;;;1.85;1.70;;;7.00;99.90;;;;;;5016641;28;20709;-75
2021/11/10 08:47:15;;;;;;;1.02;0.85;;;7.00;99.90;;;;;;5016106;28;20205;-75
2021/11/10 08:49:43;;;;;;;1.45;1.33;;;6.90;99.90;;;;;;5034795;28;20261;-75
2021/11/10 08:52:12;;;;;;;3.55;1.33;;;7.00;99.90;;;;;;5034235;28;20538;-75
2021/11/10 08:54:41;;;;;;;3.97;1.50;;;7.10;99.90;;;;;;5033762;28;20221;-74
2021/11/10 08:57:09;;;;;;;1.70;1.02;;;7.00;99.90;;;;;;5033942;28;20185;-75
2021/11/10 08:59:37;;;;;;;2.35;2.22;;;7.20;99.90;;;;;;5033726;28;20628;-75
2021/11/10 09:02:06;;;;;;;2.45;1.35;;;7.30;99.90;;;;;;5015988;28;20289;-74
2021/11/10 09:04:36;;;;;;;0.80;0.55;;;7.10;99.90;;;;;;5033391;28;20202;-74
2021/11/10 09:07:06;;;;;;;0.90;0.60;;;7.10;99.90;;;;;;5033643;28;20563;-73
2021/11/10 09:09:34;;;;;;;1.60;0.73;;;7.10;99.90;;;;;;5027550;28;20647;-74
2021/11/10 09:12:03;;;;;;;1.08;0.95;;;7.10;99.90;;;;;;5033066;28;20200;-74
2021/11/10 09:14:32;;;;;;;1.63;1.15;;;7.20;99.90;;;;;;5033948;28;20217;-73
2021/11/10 09:17:01;;;;;;;4.32;2.05;;;7.20;99.90;;;;;;5033297;28;20205;-74
2021/11/10 09:19:29;;;;;;;1.45;1.02;;;7.20;99.90;;;;;;5033446;28;20632;-74
2021/11/10 09:21:59;;;;;;;4.60;1.02;;;7.40;99.90;;;;;;5033490;28;20615;-73
2021/11/10 09:24:27;;;;;;;2.40;1.45;;;7.50;99.90;;;;;;5033509;28;20687;-75
2021/11/10 09:26:55;;;;;;;1.67;1.25;;;7.70;99.90;;;;;;5015831;28;20217;-74
2021/11/10 09:29:24;;;;;;;1.52;1.42;;;7.80;99.90;;;;;;5015861;28;20193;-74
2021/11/10 09:31:53;;;;;;;1.50;1.25;;;7.90;99.90;;;;;;5015777;28;20190;-73
2021/11/10 09:34:21;;;;;;;4.53;1.77;;;8.10;99.90;;;;;;5033213;28;20201;-75
2021/11/10 09:36:50;;;;;;;1.95;1.60;;;8.20;99.90;;;;;;5033612;28;20188;-74
2021/11/10 09:39:23;;;;;;;1.17;1.08;;;8.30;99.90;;;;;;5033369;28;20193;-74
2021/11/10 09:41:54;;;;;;;0.90;0.60;;;8.30;99.90;;;;;;5034500;28;20213;-75
2021/11/10 09:44:25;;;;;;;2.92;1.48;;;8.30;99.90;;;;;;5033563;28;20636;-74
2021/11/10 09:46:55;;;;;;;5.30;1.70;;;8.50;99.90;;;;;;5033355;28;20201;-75
2021/11/10 09:49:24;;;;;;;0.90;0.73;;;8.50;99.90;;;;;;5033872;28;20224;-74
2021/11/10 09:51:52;;;;;;;1.45;1.25;;;8.60;99.90;;;;;;5033002;28;20432;-74
2021/11/10 09:54:21;;;;;;;3.40;1.08;;;8.60;99.90;;;;;;5033032;28;20585;-73
2021/11/10 09:56:51;;;;;;;1.33;0.75;;;8.50;99.90;;;;;;5033278;28;20694;-74
2021/11/10 09:59:20;;;;;;;1.20;1.00;;;8.40;99.90;;;;;;5033559;28;20560;-74
2021/11/10 10:01:48;;;;;;;2.40;1.25;;;8.50;99.90;;;;;;5032852;28;20185;-74
2021/11/10 10:04:18;;;;;;;0.80;0.50;;;8.60;99.90;;;;;;5034029;28;20213;-74
2021/11/10 10:06:46;;;;;;;1.60;1.03;;;8.70;99.90;;;;;;5032354;28;20209;-74
2021/11/10 10:09:15;;;;;;;1.38;0.85;;;8.80;99.90;;;;;;5032856;28;20950;-74
2021/11/10 10:11:44;;;;;;;1.05;0.80;;;8.80;99.90;;;;;;5032806;28;20193;-73
2021/11/10 10:14:13;;;;;;;1.95;1.85;;;8.80;99.90;;;;;;5032368;28;20312;-73
2021/11/10 10:16:41;;;;;;;1.47;1.17;;;8.90;99.90;;;;;;5014771;28;20247;-73
2021/11/10 10:19:11;;;;;;;1.30;1.20;;;8.90;99.90;;;;;;5032574;28;20918;-73
2021/11/10 10:21:43;;;;;;;1.97;0.70;;;9.10;99.90;;;;;;5032664;28;20408;-75
2021/11/10 10:24:14;;;;;;;5.37;2.67;;;9.20;99.90;;;;;;5032636;28;20443;-74
2021/11/10 10:26:43;;;;;;;2.40;2.20;;;9.40;99.90;;;;;;5032479;28;20471;-75
2021/11/10 10:29:12;;;;;;;2.13;1.40;;;9.70;99.90;;;;;;5032295;28;20478;-75
2021/11/10 10:31:45;;;;;;;1.13;1.03;;;10.00;99.90;;;;;;5032308;28;20452;-74
2021/11/10 10:34:15;;;;;;;1.30;1.20;;;10.40;99.90;;;;;;5034037;28;20440;-74
2021/11/10 10:36:45;;;;;;;3.20;1.37;;;10.70;99.90;;;;;;5032607;28;20413;-74
2021/11/10 10:39:17;;;;;;;2.13;0.80;;;10.80;99.90;;;;;;5032452;28;20404;-73
2021/11/10 10:41:51;;;;;;;1.60;1.00;;;10.90;99.90;;;;;;5032446;28;20415;-72
2021/11/10 10:44:22;;;;;;;1.70;0.97;;;10.90;99.90;;;;;;5014335;28;20439;-74
2021/11/10 10:46:58;;;;;;;3.20;1.97;;;11.00;99.90;;;;;;5034214;28;20438;-73
2021/11/10 10:49:32;;;;;;;2.07;1.53;;;11.10;99.90;;;;;;5037426;28;20379;-74
2021/11/10 10:52:11;;;;;;;2.37;2.17;;;11.00;99.90;;;;;;5019039;28;20440;-73
2021/11/10 10:54:40;;;;;;;1.27;1.17;;;11.00;99.90;;;;;;5018417;28;20523;-74
2021/11/10 10:57:11;;;;;;;1.00;0.60;;;10.90;99.90;;;;;;5035536;28;20481;-73
2021/11/10 10:59:39;;;;;;;4.83;1.57;;;10.80;99.90;;;;;;5035374;28;20420;-73
2021/11/10 11:02:08;;;;;;;2.27;2.07;;;10.60;99.90;;;;;;5035529;28;20752;-73
2021/11/10 11:04:43;;;;;;;3.27;1.47;;;10.90;99.90;;;;;;5035398;28;20440;-73
2021/11/10 11:07:13;;;;;;;1.90;1.30;;;11.20;99.90;;;;;;5035597;28;20849;-73
2021/11/10 11:09:43;;;;;;;2.20;1.70;;;11.40;99.90;;;;;;5017701;28;20444;-73
2021/11/10 11:12:20;;;;;;;4.40;1.23;;;11.20;99.90;;;;;;5035365;28;20384;-73
2021/11/10 11:14:53;;;;;;;2.00;0.90;;;11.20;99.90;;;;;;5035165;28;20455;-73
2021/11/10 11:17:29;;;;;;;2.03;1.27;;;11.30;99.90;;;;;;5035084;28;20502;-74
2021/11/10 11:20:00;;;;;;;1.50;1.40;;;11.30;99.90;;;;;;5034800;28;20918;-73
2021/11/10 11:22:30;;;;;;;1.30;1.10;;;11.30;99.90;;;;;;5035530;28;20903;-74
2021/11/10 11:25:09;;;;;;;1.10;0.90;;;11.40;99.90;;;;;;5035681;28;20802;-75
2021/11/10 11:27:39;;;;;;;1.20;0.90;;;11.40;99.90;;;;;;5035524;28;20456;-74
2021/11/10 11:30:12;;;;;;;1.60;0.60;;;11.30;99.90;;;;;;5035324;28;20424;-74
2021/11/10 11:32:42;;;;;;;0.97;0.73;;;11.20;99.90;;;;;;5035439;28;20420;-73
2021/11/10 11:35:20;;;;;;;1.63;1.07;;;11.20;99.90;;;;;;5036246;28;20410;-74
2021/11/10 11:37:49;;;;;;;3.07;2.33;;;11.30;99.90;;;;;;5035771;28;20382;-73
2021/11/10 11:40:20;;;;;;;1.67;0.70;;;11.30;99.90;;;;;;5035781;28;20525;-74
2021/11/10 11:42:50;;;;;;;1.20;0.70;;;11.30;99.90;;;;;;5035357;28;20522;-73
2021/11/10 11:45:20;;;;;;;1.83;1.43;;;11.30;99.90;;;;;;5034901;28;20414;-74
2021/11/10 11:47:50;;;;;;;1.93;1.27;;;11.20;99.90;;;;;;5034753;28;20468;-74
2021/11/10 11:50:19;;;;;;;2.90;0.90;;;11.00;99.90;;;;;;5035095;28;20511;-74
2021/11/10 11:52:50;;;;;;;1.00;0.63;;;10.90;99.90;;;;;;5035789;28;20485;-74
2021/11/10 11:55:22;;;;;;;1.00;0.77;;;11.00;99.90;;;;;;5035205;28;20427;-73
2021/11/10 11:58:02;;;;;;;1.10;0.80;;;11.00;99.90;;;;;;5015093;28;20479;-74
2021/11/10 12:00:32;;;;;;;1.63;1.37;;;10.90;99.90;;;;;;5016228;28;20894;-76
2021/11/10 12:03:01;;;;;;;1.83;1.23;;;11.10;99.90;;;;;;5015227;28;20467;-74
2021/11/10 12:05:29;;;;;;;1.30;1.00;;;11.20;99.90;;;;;;5015140;28;20428;-73
2021/11/10 12:07:58;;;;;;;1.53;0.70;;;11.20;99.90;;;;;;5015320;28;20491;-75
2021/11/10 12:10:45;;;;;;;0.90;0.70;;;11.10;99.90;;;;;;4998575;28;20445;-75
2021/11/10 12:13:23;;;;;;;1.10;0.83;;;11.10;99.90;;;;;;5015935;28;20463;-75
2021/11/10 12:16:19;;;;;;;1.10;0.77;;;11.10;99.90;;;;;;5022554;28;20526;-74
2021/11/10 12:18:59;;;;;;;1.67;1.07;;;11.10;99.90;;;;;;5018370;28;20479;-72
2021/11/10 12:21:35;;;;;;;1.20;1.10;;;10.90;99.90;;;;;;5035072;28;20410;-74
2021/11/10 12:24:15;;;;;;;1.23;1.13;;;10.90;99.90;;;;;;5034795;28;20770;-73
2021/11/10 12:27:12;;;;;;;1.97;1.87;;;11.00;99.90;;;;;;5033962;28;20408;-74
2021/11/10 12:29:49;;;;;;;2.10;1.70;;;11.00;99.90;;;;;;5033842;28;20965;-74
2021/11/10 12:32:17;;;;;;;2.00;1.00;;;11.00;99.90;;;;;;5033809;28;20451;-74
2021/11/10 12:34:50;;;;;;;1.33;1.00;;;10.90;99.90;;;;;;5034810;28;20425;-73
2021/11/10 12:37:24;;;;;;;3.40;2.90;;;10.80;99.90;;;;;;5034055;28;20423;-74
2021/11/10 12:40:12;;;;;;;1.93;1.00;;;10.70;99.90;;;;;;5033946;28;20412;-74
2021/11/10 12:42:49;;;;;;;1.63;0.80;;;10.50;99.90;;;;;;5034010;28;20419;-74
2021/11/10 12:45:24;;;;;;;1.13;0.60;;;10.50;99.90;;;;;;5034466;28;20766;-75
2021/11/10 12:47:53;;;;;;;1.80;1.33;;;10.40;99.90;;;;;;5034102;28;20416;-75
2021/11/10 12:50:27;;;;;;;7.90;1.93;;;10.40;99.90;;;;;;5033687;28;20417;-74
2021/11/10 12:52:57;;;;;;;1.00;0.90;;;10.40;99.90;;;;;;5033978;28;20415;-75
2021/11/10 12:55:29;;;;;;;1.30;0.90;;;10.20;99.90;;;;;;5033734;28;20789;-74
2021/11/10 12:57:58;;;;;;;1.93;1.23;;;10.10;99.90;;;;;;5033980;28;20417;-74
2021/11/10 13:00:30;;;;;;;1.50;1.40;;;10.10;99.90;;;;;;5034109;28;20408;-74
2021/11/10 13:03:00;;;;;;;1.20;1.10;;;10.10;99.90;;;;;;5034901;28;20420;-74
2021/11/10 13:05:30;;;;;;;2.17;1.00;;;10.00;99.90;;;;;;5034847;28;20762;-75
2021/11/10 13:08:08;;;;;;;1.80;1.33;;;9.80;99.90;;;;;;5046209;28;20404;-73
2021/11/10 13:10:37;;;;;;;2.40;1.00;;;9.90;99.90;;;;;;5057275;28;20470;-73